»·PEaware :: N522PM KSBA-KSNA

N522PM :: KSBA-KSNA

FLIGHT INFORMATION

Flight Status: Arrived
Operator: Privately registered:
United States
More flights under this callsign
Pilot: Bruce B. (6887)
Aircraft: BEECH AIRCRAFT BONANZA
(BE36)
More flights by this aircraft type
Origin: KSBA Santa Barbara Mun
United States
Destination: KSNA John Wayne-Orange Co
United States
More flights between these airports :: More routes between these airports
Route: SXC
File this flight plan on PilotEdge
Remarks:
Altitude:
(Current/Filed)
7,500ft
Speed:
(Current/Filed)
160kts
Departed: 04-Dec-18 04:48 PM
Arrived: 04-Dec-18 05:43 PM
Distance/Time
Traveled:
108nm/0:54
Distance/Time
To Go:
Arrived

Flight Plot

Page will automatically refresh every two minutes.

Flight plan parsing failed; only flown route is shown


Map Options




Map Legend


Flown Route
Filed Route
Departure Airport
Arrival Airport
Navaid (VOR, NDB)
Fix

Horizontal Profiles

Position Reports

Time Latitude Longitude Heading Altitude Ground
Speed
04-Dec-18 16:36 34.432173 -119.835588 70 14ft 0kts
04-Dec-18 16:37 34.432173 -119.835588 70 14ft 0kts
04-Dec-18 16:38 34.432173 -119.835588 70 14ft 0kts
04-Dec-18 16:39 34.432173 -119.835588 70 14ft 0kts
04-Dec-18 16:40 34.432173 -119.835588 70 14ft 0kts
04-Dec-18 16:41 34.432173 -119.835588 70 14ft 0kts
04-Dec-18 16:42 34.432287 -119.835563 300 14ft 3kts
04-Dec-18 16:43 34.431086 -119.838497 253 14ft 14kts
04-Dec-18 16:44 34.430740 -119.839704 250 14ft 0kts
04-Dec-18 16:45 34.430740 -119.839705 250 14ft 0kts
04-Dec-18 16:46 34.430740 -119.839705 250 14ft 0kts
04-Dec-18 16:47 34.427980 -119.839389 165 14ft 65kts
04-Dec-18 16:48 34.400740 -119.831577 163 1155ft 108kts
04-Dec-18 16:49 34.366425 -119.820023 162 1507ft 142kts
04-Dec-18 16:50 34.326506 -119.806062 162 1445ft 152kts
04-Dec-18 16:51 34.286258 -119.792964 163 1497ft 148kts
04-Dec-18 16:52 34.246469 -119.780480 163 1623ft 144kts
04-Dec-18 16:53 34.213520 -119.755140 136 2280ft 141kts
04-Dec-18 16:54 34.187365 -119.720562 129 3014ft 135kts
04-Dec-18 16:55 34.165226 -119.687664 129 4174ft 108kts
04-Dec-18 16:56 34.148862 -119.664530 128 5555ft 80kts
04-Dec-18 16:57 34.133891 -119.644496 129 6602ft 79kts
04-Dec-18 16:58 34.118854 -119.623865 129 7448ft 87kts
04-Dec-18 16:59 34.098692 -119.595343 129 7521ft 132kts
04-Dec-18 17:00 34.073423 -119.559586 130 7508ft 144kts
04-Dec-18 17:01 34.047219 -119.522666 130 7506ft 145kts
04-Dec-18 17:02 34.021329 -119.486328 128 7506ft 140kts
04-Dec-18 17:03 34.017756 -119.439452 103 7509ft 141kts
04-Dec-18 17:04 34.002188 -119.397378 125 7521ft 139kts
04-Dec-18 17:05 33.983480 -119.357668 130 7525ft 139kts
04-Dec-18 17:06 33.954941 -119.325473 134 7516ft 141kts
04-Dec-18 17:07 33.928312 -119.290755 131 7516ft 141kts
04-Dec-18 17:08 33.905515 -119.252108 124 7518ft 142kts
04-Dec-18 17:09 33.884033 -119.211902 125 7518ft 142kts
04-Dec-18 17:10 33.861451 -119.172820 126 7517ft 142kts
04-Dec-18 17:11 33.838129 -119.134120 127 7517ft 143kts
04-Dec-18 17:12 33.814595 -119.095348 127 7512ft 144kts
04-Dec-18 17:13 33.790834 -119.056359 127 7511ft 144kts
04-Dec-18 17:14 33.767074 -119.017434 127 7515ft 144kts
04-Dec-18 17:15 33.743246 -118.978431 127 7515ft 144kts
04-Dec-18 17:16 33.719263 -118.939401 127 7516ft 145kts
04-Dec-18 17:17 33.695127 -118.900204 128 7516ft 145kts
04-Dec-18 17:18 33.673586 -118.859014 119 7518ft 146kts
04-Dec-18 17:19 33.655247 -118.815128 119 7518ft 146kts
04-Dec-18 17:20 33.636883 -118.771390 119 7519ft 146kts
04-Dec-18 17:21 33.618975 -118.728973 119 7487ft 148kts
04-Dec-18 17:22 33.600361 -118.685127 119 7484ft 147kts
04-Dec-18 17:23 33.581342 -118.640682 119 7232ft 159kts
04-Dec-18 17:24 33.558860 -118.590248 119 6247ft 177kts
04-Dec-18 17:25 33.560697 -118.531824 80 5276ft 185kts
04-Dec-18 17:26 33.571066 -118.470514 80 4277ft 187kts
04-Dec-18 17:27 33.580101 -118.413835 81 3497ft 158kts
04-Dec-18 17:28 33.586372 -118.365084 83 3481ft 140kts
04-Dec-18 17:29 33.593121 -118.319315 81 3484ft 139kts
04-Dec-18 17:30 33.600823 -118.273902 75 3492ft 139kts
04-Dec-18 17:31 33.611647 -118.229138 77 3490ft 139kts
04-Dec-18 17:32 33.620872 -118.184079 77 3489ft 139kts
04-Dec-18 17:33 33.629374 -118.138804 78 3489ft 139kts
04-Dec-18 17:34 33.637415 -118.095222 78 3488ft 139kts
04-Dec-18 17:35 33.643519 -118.049416 78 3488ft 139kts
04-Dec-18 17:36 33.650731 -118.003599 73 3224ft 146kts
04-Dec-18 17:37 33.664103 -117.955460 72 2659ft 156kts
04-Dec-18 17:38 33.674013 -117.904975 73 1839ft 133kts
04-Dec-18 17:39 33.689593 -117.874410 31 753ft 97kts
04-Dec-18 17:40 33.704944 -117.853831 125 647ft 96kts
04-Dec-18 17:41 33.683770 -117.861733 209 183ft 84kts
04-Dec-18 17:42 33.673383 -117.866972 186 60ft 12kts
04-Dec-18 17:43 33.672187 -117.866648 208 60ft 0kts
04-Dec-18 17:44 33.672187 -117.866648 208 60ft 0kts

Navigation Log

Ident Type
Flight plan parsing failed, navigation log unavailable